Time;durP1;ratioP1;P1;durP2;ratioP2;P2;SDS_P1;SDS_P2;PMS_P1;PMS_P2;Temp;Humidity;BMP_temperature;BMP_pressure;BME280_temperature;BME280_humidity;BME280_pressure;Samples;Min_cycle;Max_cycle;Signal;HPM_P1;HPM_P2
2022/12/02 00:00:21;;;;;;;21.27;9.85;;;;;;;2.40;100.00;92541.88;5072175;28;20107;-76
2022/12/02 00:02:46;;;;;;;25.52;13.38;;;;;;;2.41;100.00;92527.16;5054135;28;20502;-76
2022/12/02 00:05:15;;;;;;;30.65;15.63;;;;;;;2.36;100.00;92532.25;5088966;28;20439;-75
2022/12/02 00:07:42;;;;;;;30.63;14.68;;;;;;;2.33;100.00;92525.75;5089310;28;20485;-76
2022/12/02 00:10:27;;;;;;;28.70;15.20;;;;;;;2.29;100.00;92527.22;5092290;28;20127;-75
2022/12/02 00:12:53;;;;;;;29.98;14.68;;;;;;;2.24;100.00;92527.94;5092237;28;20077;-75
2022/12/02 00:15:41;;;;;;;27.45;13.95;;;;;;;2.22;100.00;92526.59;5107896;28;20119;-76
2022/12/02 00:18:11;;;;;;;27.45;12.70;;;;;;;2.23;100.00;92528.16;5079048;28;20072;-75
2022/12/02 00:20:37;;;;;;;24.50;12.73;;;;;;;2.22;100.00;92531.78;5071680;28;20064;-75
2022/12/02 00:23:03;;;;;;;25.20;12.95;;;;;;;2.20;100.00;92537.16;5053928;28;20043;-75
2022/12/02 00:25:29;;;;;;;25.02;12.43;;;;;;;2.20;100.00;92533.81;5071659;28;20044;-75
2022/12/02 00:27:55;;;;;;;27.30;12.48;;;;;;;2.19;100.00;92530.44;5072540;28;20407;-75
2022/12/02 00:30:21;;;;;;;25.45;12.32;;;;;;;2.19;100.00;92527.84;5053328;28;20399;-75
2022/12/02 00:32:47;;;;;;;26.83;12.52;;;;;;;2.21;100.00;92530.22;5053569;28;20060;-75
2022/12/02 00:35:14;;;;;;;23.05;12.20;;;;;;;2.20;100.00;92529.41;5071487;28;20482;-75
2022/12/02 00:37:40;;;;;;;21.23;10.65;;;;;;;2.21;100.00;92530.22;5071218;28;20028;-75
2022/12/02 00:40:06;;;;;;;22.42;11.68;;;;;;;2.21;100.00;92530.22;5070118;28;20043;-75
2022/12/02 00:42:31;;;;;;;27.33;11.90;;;;;;;2.20;100.00;92529.41;5071401;28;20546;-75
2022/12/02 00:47:41;;;;;;;22.20;11.82;;;;;;;2.18;100.00;92530.66;5091038;28;20040;-75
2022/12/02 00:50:07;;;;;;;23.98;11.85;;;;;;;2.24;100.00;92534.91;5090184;28;20035;-76
2022/12/02 00:52:33;;;;;;;23.88;11.82;;;;;;;2.20;100.00;92532.00;5107286;28;20102;-75
2022/12/02 00:54:58;;;;;;;21.83;11.55;;;;;;;2.20;100.00;92531.22;5107066;28;20044;-75
2022/12/02 00:57:24;;;;;;;23.30;12.55;;;;;;;2.18;100.00;92526.28;5090151;28;20040;-76
2022/12/02 00:59:51;;;;;;;22.75;11.60;;;;;;;2.17;100.00;92529.88;5077605;28;20461;-75
2022/12/02 01:02:17;;;;;;;22.60;11.77;;;;;;;2.19;100.00;92540.00;5069706;28;20059;-75
2022/12/02 01:04:43;;;;;;;26.80;13.07;;;;;;;2.19;100.00;92532.25;5071072;28;20486;-76
2022/12/02 01:07:09;;;;;;;24.02;12.00;;;;;;;2.20;100.00;92538.97;5069770;28;20543;-76
2022/12/02 01:09:35;;;;;;;27.75;12.43;;;;;;;2.21;100.00;92535.38;5071794;28;20028;-75
2022/12/02 01:12:01;;;;;;;28.63;12.75;;;;;;;2.20;100.00;92537.16;5069767;28;20028;-76
2022/12/02 01:14:27;;;;;;;26.27;13.25;;;;;;;2.19;100.00;92543.34;5070923;28;20584;-76
2022/12/02 01:16:52;;;;;;;27.63;13.60;;;;;;;2.19;100.00;92547.75;5071123;28;20078;-76
2022/12/02 01:19:18;;;;;;;24.92;11.98;;;;;;;2.20;100.00;92536.38;5070472;28;20064;-75
2022/12/02 01:21:43;;;;;;;27.65;13.32;;;;;;;2.22;100.00;92539.53;5091082;28;20500;-75
2022/12/02 01:24:09;;;;;;;28.98;13.93;;;;;;;2.22;100.00;92540.28;5088212;28;20103;-76
2022/12/02 01:26:36;;;;;;;28.65;14.07;;;;;;;2.23;100.00;92539.28;5070480;28;20225;-75
2022/12/02 01:29:02;;;;;;;29.63;13.93;;;;;;;2.24;100.00;92540.06;5070967;28;20040;-76
2022/12/02 01:31:28;;;;;;;29.42;14.50;;;;;;;2.24;100.00;92540.06;5070675;28;20024;-76
2022/12/02 01:33:53;;;;;;;30.38;14.60;;;;;;;2.24;100.00;92537.50;5069556;28;20047;-76
2022/12/02 01:36:19;;;;;;;29.33;13.80;;;;;;;2.24;100.00;92540.84;5070807;28;20131;-76
2022/12/02 01:38:44;;;;;;;32.65;14.48;;;;;;;2.25;100.00;92534.69;5070125;28;20029;-76
2022/12/02 01:41:10;;;;;;;29.10;14.90;;;;;;;2.25;100.00;92534.69;5056874;28;20127;-76
2022/12/02 01:43:36;;;;;;;34.13;16.38;;;;;;;2.25;100.00;92532.09;5056891;28;20051;-76
2022/12/02 01:46:02;;;;;;;34.88;16.30;;;;;;;2.27;100.00;92540.41;5073740;28;20029;-75
2022/12/02 01:48:29;;;;;;;32.92;16.00;;;;;;;2.30;100.00;92539.16;5057369;28;20032;-76
2022/12/02 01:50:55;;;;;;;34.80;16.77;;;;;;;2.31;100.00;92530.38;5074488;28;20028;-76
2022/12/02 01:53:21;;;;;;;35.85;16.90;;;;;;;2.33;100.00;92532.72;5074451;28;20528;-75
2022/12/02 01:55:46;;;;;;;33.63;16.15;;;;;;;2.35;100.00;92535.88;5056589;28;20036;-76
2022/12/02 01:58:12;;;;;;;35.75;16.98;;;;;;;2.36;100.00;92532.25;5056875;28;20037;-76
2022/12/02 02:00:39;;;;;;;37.30;17.50;;;;;;;2.37;100.00;92533.84;5073307;28;20024;-76
2022/12/02 02:03:05;;;;;;;31.75;16.25;;;;;;;2.36;100.00;92532.25;5075406;28;20098;-75
2022/12/02 02:05:32;;;;;;;48.88;17.77;;;;;;;2.36;100.00;92534.84;5072910;28;20040;-76
2022/12/02 02:08:07;;;;;;;31.98;16.30;;;;;;;2.36;100.00;92538.19;5074018;28;20042;-76
2022/12/02 02:10:34;;;;;;;36.50;16.88;;;;;;;2.32;100.00;92526.78;5073087;28;20062;-76
2022/12/02 02:13:01;;;;;;;31.60;15.80;;;;;;;2.34;100.00;92544.63;5073849;28;20040;-76
2022/12/02 02:15:27;;;;;;;39.38;16.45;;;;;;;2.33;100.00;92538.66;5073021;28;20043;-76
2022/12/02 02:17:55;;;;;;;38.15;18.65;;;;;;;2.32;100.00;92542.28;5072826;28;20040;-76
2022/12/02 02:20:22;;;;;;;33.97;15.90;;;;;;;2.39;100.00;92547.31;5072882;28;20119;-76
2022/12/02 02:23:01;;;;;;;35.97;15.60;;;;;;;2.38;100.00;92537.97;5073443;28;20033;-76
2022/12/02 02:25:29;;;;;;;31.55;16.60;;;;;;;2.36;100.00;92538.19;5072644;28;20055;-76
2022/12/02 02:27:58;;;;;;;37.78;16.92;;;;;;;2.34;100.00;92536.88;5082187;28;20036;-76
2022/12/02 02:30:27;;;;;;;35.40;16.08;;;;;;;2.34;100.00;92535.06;5092908;28;20544;-76
2022/12/02 02:32:53;;;;;;;36.83;17.02;;;;;;;2.33;100.00;92532.72;5074333;28;20032;-76
2022/12/02 02:35:20;;;;;;;34.55;17.38;;;;;;;2.33;100.00;92532.72;5092783;28;20425;-76
2022/12/02 02:37:49;;;;;;;38.78;17.92;;;;;;;2.31;100.00;92535.53;5109730;28;20036;-75
2022/12/02 02:40:16;;;;;;;38.55;17.33;;;;;;;2.31;100.00;92527.78;5092767;28;20090;-76
2022/12/02 02:42:46;;;;;;;37.00;17.67;;;;;;;2.31;100.00;92529.59;5092790;28;20028;-76
2022/12/02 02:45:12;;;;;;;39.00;19.48;;;;;;;2.30;100.00;92528.81;5091217;28;20428;-75
2022/12/02 02:47:38;;;;;;;39.70;18.95;;;;;;;2.29;100.00;92528.00;5092437;28;20092;-75
2022/12/02 02:50:05;;;;;;;36.10;18.45;;;;;;;2.29;100.00;92530.59;5090565;28;20039;-75
2022/12/02 02:52:31;;;;;;;44.28;19.02;;;;;;;2.28;100.00;92530.84;5073489;28;20046;-75
2022/12/02 02:54:57;;;;;;;38.88;18.67;;;;;;;2.28;100.00;92523.88;5092537;28;20043;-75
2022/12/02 02:57:23;;;;;;;39.88;18.70;;;;;;;2.31;100.00;92527.00;5075704;28;20057;-75
2022/12/02 02:59:54;;;;;;;42.50;19.50;;;;;;;2.28;100.00;92526.47;5075638;28;20135;-76
2022/12/02 03:02:22;;;;;;;37.63;18.45;;;;;;;2.31;100.00;92522.63;5076915;28;20037;-75
2022/12/02 03:04:48;;;;;;;38.88;18.48;;;;;;;2.25;100.00;92514.03;5073178;28;20062;-75
2022/12/02 03:07:15;;;;;;;41.97;19.05;;;;;;;2.33;100.00;92522.38;5071907;28;20047;-75
2022/12/02 03:09:41;;;;;;;39.50;19.88;;;;;;;2.33;100.00;92519.81;5072157;28;20029;-75
2022/12/02 03:12:07;;;;;;;44.88;21.02;;;;;;;2.34;100.00;92513.63;5064062;28;20028;-75
2022/12/02 03:14:33;;;;;;;49.30;22.45;;;;;;;2.31;100.00;92517.44;5092200;28;20218;-76
2022/12/02 03:17:01;;;;;;;50.65;22.77;;;;;;;2.34;100.00;92518.78;5091978;28;20127;-75
2022/12/02 03:19:31;;;;;;;51.28;23.92;;;;;;;2.35;100.00;92520.34;5092186;28;20485;-76
2022/12/02 03:21:57;;;;;;;52.38;23.63;;;;;;;2.36;100.00;92521.91;5088932;28;20082;-75
2022/12/02 03:24:23;;;;;;;49.97;24.33;;;;;;;2.36;100.00;92517.53;5071542;28;20043;-75
2022/12/02 03:26:49;;;;;;;59.28;23.35;;;;;;;2.37;100.00;92513.16;5089938;28;20365;-75
2022/12/02 03:29:15;;;;;;;54.45;23.70;;;;;;;2.35;100.00;92515.19;5092965;28;20493;-75
2022/12/02 03:31:42;;;;;;;46.50;22.02;;;;;;;2.34;100.00;92514.38;5091530;28;20036;-75
2022/12/02 03:34:08;;;;;;;48.22;22.63;;;;;;;2.34;100.00;92513.63;5091240;28;20127;-75
2022/12/02 03:36:34;;;;;;;52.00;22.88;;;;;;;2.34;100.00;92518.78;5091517;28;20059;-75
2022/12/02 03:39:00;;;;;;;42.70;20.40;;;;;;;2.32;100.00;92519.03;5091460;28;20062;-75
2022/12/02 03:41:26;;;;;;;46.75;21.60;;;;;;;2.32;100.00;92511.28;5091543;28;20040;-75
2022/12/02 03:43:53;;;;;;;49.47;22.55;;;;;;;2.31;100.00;92514.88;5077918;28;20563;-76
2022/12/02 03:46:19;;;;;;;47.60;21.52;;;;;;;2.31;100.00;92509.69;5072142;28;20128;-76
2022/12/02 03:48:45;;;;;;;56.55;22.38;;;;;;;2.28;100.00;92510.97;5054547;28;20178;-76
2022/12/02 03:51:12;;;;;;;44.55;20.85;;;;;;;2.32;100.00;92515.66;5071352;28;20047;-76
2022/12/02 03:53:39;;;;;;;49.10;21.52;;;;;;;2.27;100.00;92508.59;5038838;28;20041;-76
2022/12/02 03:56:07;;;;;;;44.60;20.95;;;;;;;2.25;100.00;92506.28;5072133;28;20029;-76
2022/12/02 03:58:39;;;;;;;46.38;21.17;;;;;;;2.24;100.00;92509.84;5071084;28;20040;-75
2022/12/02 04:01:05;;;;;;;42.60;20.40;;;;;;;2.23;100.00;92503.13;5054361;28;20045;-75
2022/12/02 04:03:31;;;;;;;42.45;21.15;;;;;;;2.24;100.00;92498.75;5072191;28;20482;-75
2022/12/02 04:05:57;;;;;;;46.38;19.92;;;;;;;2.23;100.00;92500.56;5071946;28;20079;-75
2022/12/02 04:08:23;;;;;;;44.38;18.38;;;;;;;2.22;100.00;92501.56;5087982;28;20474;-75
2022/12/02 04:10:48;;;;;;;39.15;17.98;;;;;;;2.24;100.00;92504.69;5090982;28;20028;-75
2022/12/02 04:13:14;;;;;;;35.40;17.50;;;;;;;2.27;100.00;92499.06;5091899;28;20032;-75
2022/12/02 04:15:39;;;;;;;39.28;18.42;;;;;;;2.24;100.00;92494.34;5090682;28;20036;-76
2022/12/02 04:18:05;;;;;;;37.42;18.48;;;;;;;2.29;100.00;92496.22;5090616;28;20439;-76
2022/12/02 04:20:30;;;;;;;34.20;16.83;;;;;;;2.32;100.00;92495.78;5073872;28;20036;-76
2022/12/02 04:22:56;;;;;;;41.00;17.38;;;;;;;2.33;100.00;92493.97;5090102;28;20048;-76
2022/12/02 04:25:21;;;;;;;34.47;15.57;;;;;;;2.29;100.00;92499.59;5088607;28;20028;-77
2022/12/02 04:27:47;;;;;;;32.80;15.77;;;;;;;2.30;100.00;92490.06;5074466;28;20041;-76
2022/12/02 04:30:13;;;;;;;32.95;15.48;;;;;;;2.28;100.00;92494.69;5072189;28;20604;-76
2022/12/02 04:32:38;;;;;;;32.83;15.45;;;;;;;2.23;100.00;92492.81;5072231;28;20027;-76
2022/12/02 04:35:04;;;;;;;36.15;15.75;;;;;;;2.23;100.00;92497.16;5054553;28;20096;-76
2022/12/02 04:37:30;;;;;;;30.75;14.23;;;;;;;2.20;100.00;92487.31;5070151;28;20071;-76
2022/12/02 04:39:55;;;;;;;29.63;14.95;;;;;;;2.20;100.00;92487.31;5071502;28;20028;-76
2022/12/02 04:42:21;;;;;;;29.13;13.70;;;;;;;2.17;100.00;92483.41;5054407;28;20040;-76
2022/12/02 04:44:46;;;;;;;30.05;13.93;;;;;;;2.17;100.00;92490.38;5071185;28;20040;-76
2022/12/02 04:47:12;;;;;;;32.08;13.95;;;;;;;2.16;100.00;92497.34;5075782;28;20535;-76
2022/12/02 04:49:37;;;;;;;28.40;13.13;;;;;;;2.16;100.00;92486.22;5071094;28;20059;-76
2022/12/02 04:52:03;;;;;;;30.50;13.73;;;;;;;2.15;100.00;92490.59;5072786;28;20098;-76
2022/12/02 04:54:29;;;;;;;29.25;12.40;;;;;;;2.13;100.00;92487.47;5073454;28;20035;-76
2022/12/02 04:56:54;;;;;;;30.17;14.35;;;;;;;2.12;100.00;92485.91;5089984;28;20123;-76
2022/12/02 04:59:20;;;;;;;28.05;12.65;;;;;;;2.12;100.00;92485.09;5091467;28;20042;-76
2022/12/02 05:01:46;;;;;;;26.13;12.43;;;;;;;2.11;100.00;92486.91;5091155;28;20085;-76
2022/12/02 05:04:11;;;;;;;26.63;12.98;;;;;;;2.12;100.00;92480.75;5090066;28;20093;-76
2022/12/02 05:06:37;;;;;;;22.13;10.75;;;;;;;2.12;100.00;92491.06;5087647;28;20055;-76
2022/12/02 05:09:02;;;;;;;23.80;10.73;;;;;;;2.13;100.00;92486.69;5070054;28;20036;-76
2022/12/02 05:11:28;;;;;;;22.02;10.68;;;;;;;2.10;100.00;92482.78;5069990;28;20044;-76
2022/12/02 05:13:53;;;;;;;22.30;11.05;;;;;;;2.08;100.00;92477.06;5071772;28;20048;-77
2022/12/02 05:16:19;;;;;;;22.17;10.52;;;;;;;2.06;100.00;92482.44;5072217;28;20020;-76
2022/12/02 05:18:44;;;;;;;25.60;10.18;;;;;;;2.04;100.00;92486.28;5053947;28;20131;-77
2022/12/02 05:21:10;;;;;;;17.02;8.90;;;;;;;2.03;100.00;92482.16;5069596;28;20032;-76
2022/12/02 05:23:35;;;;;;;18.15;8.20;;;;;;;2.03;100.00;92489.91;5070975;28;20032;-74
2022/12/02 05:26:01;;;;;;;17.77;9.20;;;;;;;2.02;100.00;92485.72;5069748;28;20152;-75
2022/12/02 05:28:27;;;;;;;18.48;8.68;;;;;;;2.04;100.00;92489.63;5070760;28;20047;-75
2022/12/02 05:30:52;;;;;;;18.60;8.45;;;;;;;2.03;100.00;92480.34;5062865;28;20083;-75
2022/12/02 05:33:17;;;;;;;21.38;8.10;;;;;;;2.06;100.00;92486.84;5090238;28;20509;-75
2022/12/02 05:35:43;;;;;;;18.45;8.35;;;;;;;2.06;100.00;92487.63;5089563;28;20032;-75
2022/12/02 05:38:09;;;;;;;20.30;8.23;;;;;;;2.05;100.00;92490.44;5089447;28;20092;-75
2022/12/02 05:40:34;;;;;;;15.85;7.60;;;;;;;2.05;100.00;92491.22;5072839;28;20051;-75
2022/12/02 05:43:26;;;;;;;18.08;8.32;;;;;;;2.04;100.00;92488.88;5089693;28;20033;-75
2022/12/02 05:45:57;;;;;;;19.95;8.85;;;;;;;2.04;100.00;92491.44;5090675;28;20043;-75
2022/12/02 05:48:24;;;;;;;20.33;8.32;;;;;;;2.05;100.00;92490.44;5089100;28;20110;-74
2022/12/02 05:50:52;;;;;;;18.65;8.55;;;;;;;2.03;100.00;92495.84;5090748;28;20020;-75
2022/12/02 05:53:24;;;;;;;17.25;8.20;;;;;;;2.03;100.00;92495.06;5090255;28;20044;-75
2022/12/02 05:55:51;;;;;;;18.52;8.55;;;;;;;2.03;100.00;92500.22;5082153;28;20436;-76
2022/12/02 05:58:18;;;;;;;19.55;8.85;;;;;;;2.02;100.00;92496.84;5074715;28;20409;-76
2022/12/02 06:00:46;;;;;;;21.88;9.80;;;;;;;2.04;100.00;92499.97;5081048;28;20064;-75
2022/12/02 06:03:18;;;;;;;20.90;9.48;;;;;;;2.03;100.00;92501.00;5084982;28;20410;-77
2022/12/02 06:05:44;;;;;;;21.80;10.98;;;;;;;2.04;100.00;92504.34;5072372;28;20033;-77
2022/12/02 06:08:21;;;;;;;23.23;11.32;;;;;;;2.05;100.00;92505.94;5081116;28;20029;-76
2022/12/02 06:10:58;;;;;;;25.13;10.77;;;;;;;2.04;100.00;92506.94;5090032;28;20454;-77
2022/12/02 06:13:37;;;;;;;22.63;9.95;;;;;;;2.01;100.00;92505.63;5106882;28;20028;-77
2022/12/02 06:16:11;;;;;;;21.67;10.10;;;;;;;2.02;100.00;92507.16;5091451;28;20081;-77
2022/12/02 06:18:37;;;;;;;27.48;11.80;;;;;;;2.01;100.00;92499.66;5088942;28;20072;-76
2022/12/02 06:21:12;;;;;;;30.67;11.25;;;;;;;2.01;100.00;92504.84;5075966;28;20032;-77
2022/12/02 06:23:44;;;;;;;27.92;11.70;;;;;;;2.08;100.00;92515.78;5088436;28;20032;-76
2022/12/02 06:26:13;;;;;;;27.15;11.38;;;;;;;2.07;100.00;92506.47;5082462;28;20062;-77
2022/12/02 06:28:40;;;;;;;29.10;12.50;;;;;;;2.08;100.00;92502.88;5090916;28;20028;-77
2022/12/02 06:31:16;;;;;;;31.33;13.10;;;;;;;2.12;100.00;92501.41;5091440;28;20032;-77
2022/12/02 06:33:44;;;;;;;30.13;13.40;;;;;;;2.14;100.00;92504.53;5089780;28;21053;-78
2022/12/02 06:36:17;;;;;;;31.42;13.30;;;;;;;2.16;100.00;92506.88;5087428;28;20062;-77
2022/12/02 06:39:15;;;;;;;35.05;14.68;;;;;;;2.22;100.00;92505.94;5076060;28;20497;-78
2022/12/02 06:41:40;;;;;;;41.40;18.83;;;;;;;2.31;100.00;92511.50;5078664;28;20494;-77
2022/12/02 06:47:31;;;;;;;38.60;17.77;;;;;;;2.37;100.00;92518.31;5091387;28;20032;-77
2022/12/02 06:50:03;;;;;;;44.83;19.23;;;;;;;2.25;100.00;92523.53;5084932;28;20577;-77
2022/12/02 06:52:31;;;;;;;38.08;18.77;;;;;;;2.14;100.00;92514.88;5089562;28;20127;-77
2022/12/02 06:54:57;;;;;;;39.60;19.58;;;;;;;2.12;100.00;92522.06;5079369;28;20029;-78
2022/12/02 06:57:22;;;;;;;43.53;19.42;;;;;;;2.10;100.00;92533.66;5091208;28;20053;-78
2022/12/02 06:59:50;;;;;;;43.78;19.35;;;;;;;2.07;100.00;92534.88;5091442;28;20203;-78
2022/12/02 07:02:25;;;;;;;41.75;18.92;;;;;;;2.09;100.00;92532.84;5096548;28;20084;-78
2022/12/02 07:04:51;;;;;;;45.70;17.27;;;;;;;2.24;100.00;92530.50;5095039;28;20038;-78
2022/12/02 07:07:28;;;;;;;38.55;17.27;;;;;;;2.26;100.00;92536.25;5084228;28;20040;-78
2022/12/02 07:09:56;;;;;;;39.90;17.27;;;;;;;2.27;100.00;92530.06;5085867;28;20036;-78
2022/12/02 07:12:31;;;;;;;41.78;17.45;;;;;;;2.23;100.00;92534.13;5088100;28;20020;-78
2022/12/02 07:15:01;;;;;;;41.05;17.20;;;;;;;2.32;100.00;92538.91;5093455;28;20390;-78
2022/12/02 07:17:29;;;;;;;46.40;19.23;;;;;;;2.13;100.00;92543.50;5075269;28;20032;-78
2022/12/02 07:20:01;;;;;;;42.55;17.67;;;;;;;2.18;100.00;92544.34;5073926;28;20449;-78
2022/12/02 07:22:39;;;;;;;40.13;18.42;;;;;;;2.29;100.00;92542.72;5074047;28;20042;-78
2022/12/02 07:25:20;;;;;;;35.05;15.82;;;;;;;2.12;100.00;92542.72;5074886;28;20529;-78
2022/12/02 07:27:48;;;;;;;31.55;16.25;;;;;;;2.12;100.00;92537.56;5074433;28;20063;-78
2022/12/02 07:30:24;;;;;;;28.40;13.25;;;;;;;2.20;100.00;92541.56;5056851;28;20033;-78
2022/12/02 07:32:51;;;;;;;34.85;15.90;;;;;;;2.05;100.00;92542.09;5056990;28;20541;-77
2022/12/02 07:35:17;;;;;;;23.13;11.57;;;;;;;1.99;100.00;92540.44;5087627;28;20413;-77
2022/12/02 07:37:42;;;;;;;32.67;14.52;;;;;;;2.06;100.00;92546.22;5085251;28;20035;-77
2022/12/02 07:40:09;;;;;;;38.35;16.80;;;;;;;1.98;100.00;92547.41;5076593;28;20028;-77
2022/12/02 07:42:34;;;;;;;30.00;14.77;;;;;;;1.92;100.00;92543.16;5088677;28;20044;-77
2022/12/02 07:45:00;;;;;;;20.42;9.52;;;;;;;2.12;100.00;92550.47;5090497;28;20437;-77
2022/12/02 07:47:25;;;;;;;24.15;11.95;;;;;;;2.04;100.00;92549.03;5091183;28;20040;-77
2022/12/02 07:49:52;;;;;;;19.08;8.23;;;;;;;2.01;100.00;92546.16;5082143;28;20037;-77
2022/12/02 07:52:17;;;;;;;16.45;8.13;;;;;;;1.83;100.00;92541.97;5072922;28;20479;-77
2022/12/02 07:54:43;;;;;;;19.45;8.43;;;;;;;1.79;100.00;92543.44;5059651;28;20414;-77
2022/12/02 07:57:08;;;;;;;14.48;7.13;;;;;;;1.95;100.00;92547.06;5089679;28;20101;-78
2022/12/02 07:59:34;;;;;;;14.32;7.70;;;;;;;1.87;100.00;92549.00;5106305;28;20509;-76
2022/12/02 08:01:59;;;;;;;9.43;4.85;;;;;;;1.97;100.00;92555.38;5088009;28;20036;-77
2022/12/02 08:04:25;;;;;;;17.08;7.75;;;;;;;1.83;100.00;92550.47;5092798;28;20509;-77
2022/12/02 08:06:50;;;;;;;12.48;6.57;;;;;;;2.00;100.00;92545.34;5088919;28;20040;-76
2022/12/02 08:09:19;;;;;;;16.77;8.32;;;;;;;2.01;100.00;92552.09;5091648;28;20032;-77
2022/12/02 08:11:44;;;;;;;20.08;9.10;;;;;;;2.01;100.00;92552.09;5075659;28;20083;-77
2022/12/02 08:14:10;;;;;;;20.60;9.10;;;;;;;1.95;100.00;92547.84;5091514;28;20043;-77
2022/12/02 08:16:35;;;;;;;12.95;7.00;;;;;;;1.94;100.00;92548.09;5077902;28;20378;-77
2022/12/02 08:19:01;;;;;;;16.70;8.57;;;;;;;1.92;100.00;92548.31;5092872;28;20044;-78
2022/12/02 08:21:27;;;;;;;19.25;9.55;;;;;;;2.06;100.00;92546.22;5092359;28;20123;-78
2022/12/02 08:23:53;;;;;;;18.55;9.52;;;;;;;1.96;100.00;92538.28;5090430;28;20519;-78
2022/12/02 08:26:18;;;;;;;18.48;9.50;;;;;;;1.98;100.00;92541.44;5091904;28;20039;-78
2022/12/02 08:28:44;;;;;;;20.38;9.00;;;;;;;2.06;100.00;92541.84;5091276;28;20071;-78
2022/12/02 08:31:11;;;;;;;19.60;9.68;;;;;;;2.13;100.00;92552.03;5093589;28;20119;-78
2022/12/02 08:33:36;;;;;;;16.30;8.25;;;;;;;2.28;100.00;92546.34;5094611;28;20363;-78
2022/12/02 08:36:03;;;;;;;13.40;6.53;;;;;;;2.41;100.00;92550.41;5093592;28;20032;-78
2022/12/02 08:38:28;;;;;;;17.42;8.88;;;;;;;2.38;100.00;92550.88;5092037;28;20028;-78
2022/12/02 08:40:54;;;;;;;17.42;8.65;;;;;;;2.41;100.00;92556.38;5092225;28;20516;-77
2022/12/02 08:43:20;;;;;;;17.60;7.95;;;;;;;2.41;100.00;92553.78;5093717;28;20366;-78
2022/12/02 08:45:45;;;;;;;23.45;10.25;;;;;;;2.32;100.00;92551.81;5090740;28;20020;-78
2022/12/02 08:48:11;;;;;;;24.08;10.35;;;;;;;2.31;100.00;92552.84;5092599;28;20044;-78
2022/12/02 08:50:36;;;;;;;17.38;8.82;;;;;;;2.35;100.00;92553.94;5089338;28;20127;-78
2022/12/02 08:53:02;;;;;;;22.50;10.95;;;;;;;2.16;100.00;92543.84;5091616;28;20032;-78
2022/12/02 08:55:28;;;;;;;23.00;10.70;;;;;;;2.23;100.00;92549.63;5091679;28;20036;-78
2022/12/02 08:57:54;;;;;;;22.25;11.73;;;;;;;2.28;100.00;92557.44;5092483;28;20080;-77
2022/12/02 09:00:20;;;;;;;23.25;11.23;;;;;;;2.20;100.00;92552.66;5093410;28;20035;-78
2022/12/02 09:02:45;;;;;;;20.67;10.30;;;;;;;2.39;100.00;92562.81;5085570;28;20364;-78
2022/12/02 09:05:11;;;;;;;18.35;9.25;;;;;;;2.42;100.00;92555.34;5079736;28;20386;-77
2022/12/02 09:07:37;;;;;;;14.88;8.77;;;;;;;2.48;100.00;92551.06;5089936;28;20036;-77
2022/12/02 09:10:04;;;;;;;23.90;11.15;;;;;;;2.44;100.00;92552.53;5077507;28;20040;-76
2022/12/02 09:12:29;;;;;;;25.75;12.88;;;;;;;2.38;100.00;92551.66;5090124;28;20024;-77
2022/12/02 09:14:55;;;;;;;22.60;11.77;;;;;;;2.49;100.00;92557.78;5091749;28;20089;-77
2022/12/02 09:17:20;;;;;;;26.35;12.60;;;;;;;2.61;100.00;92555.13;5091898;28;20032;-77
2022/12/02 09:19:46;;;;;;;26.08;12.25;;;;;;;2.60;100.00;92546.59;5092832;28;20044;-79
2022/12/02 09:22:11;;;;;;;24.13;11.45;;;;;;;2.54;100.00;92554.50;5093323;28;20016;-77
2022/12/02 09:24:37;;;;;;;23.98;11.65;;;;;;;2.50;100.00;92554.97;5105030;28;20040;-77
2022/12/02 09:27:02;;;;;;;18.95;10.43;;;;;;;2.42;100.00;92549.41;5092856;28;20259;-77
2022/12/02 09:29:28;;;;;;;26.85;13.20;;;;;;;2.29;100.00;92553.06;5092598;28;20066;-77
2022/12/02 09:31:53;;;;;;;18.23;9.20;;;;;;;2.35;100.00;92548.78;5091495;28;20028;-77
2022/12/02 09:34:19;;;;;;;21.70;12.02;;;;;;;2.47;100.00;92555.41;5087663;28;20059;-77
2022/12/02 09:36:44;;;;;;;23.15;11.57;;;;;;;2.34;100.00;92557.53;5101592;28;20096;-77
2022/12/02 09:39:10;;;;;;;20.40;11.75;;;;;;;2.22;100.00;92558.38;5093568;28;20566;-79
2022/12/02 09:41:37;;;;;;;24.23;9.88;;;;;;;2.35;100.00;92551.38;5094151;28;20063;-77
2022/12/02 09:44:03;;;;;;;20.45;10.70;;;;;;;2.40;100.00;92559.19;5091451;28;20066;-77
2022/12/02 09:46:28;;;;;;;22.40;11.82;;;;;;;2.29;100.00;92556.44;5092946;28;20085;-77
2022/12/02 09:48:54;;;;;;;22.38;11.38;;;;;;;2.34;100.00;92547.19;5092011;28;20077;-77
2022/12/02 09:51:20;;;;;;;20.75;11.05;;;;;;;2.37;100.00;92551.91;5093792;28;20044;-78
2022/12/02 09:53:46;;;;;;;26.60;12.63;;;;;;;2.46;100.00;92545.34;5088236;28;20408;-78
2022/12/02 09:56:15;;;;;;;25.52;12.80;;;;;;;2.40;100.00;92546.28;5086929;28;20105;-78
2022/12/02 09:58:41;;;;;;;22.67;11.02;;;;;;;2.30;100.00;92541.72;5092702;28;20047;-78
2022/12/02 10:01:12;;;;;;;16.02;9.15;;;;;;;2.50;100.00;92543.84;5090726;28;20064;-78
2022/12/02 10:03:38;;;;;;;24.02;12.23;;;;;;;2.37;100.00;92539.00;5095023;28;20511;-77
2022/12/02 10:06:10;;;;;;;24.63;11.52;;;;;;;2.40;100.00;92541.09;5094753;28;20502;-78
2022/12/02 10:08:36;;;;;;;17.90;9.77;;;;;;;2.54;100.00;92539.00;5093754;28;20042;-78
2022/12/02 10:11:03;;;;;;;23.30;12.10;;;;;;;2.54;100.00;92534.59;5076678;28;20029;-78
2022/12/02 10:13:35;;;;;;;12.43;6.53;;;;;;;2.56;100.00;92532.56;5076432;28;20059;-77
2022/12/02 10:16:02;;;;;;;21.20;11.85;;;;;;;2.49;100.00;92534.53;5085247;28;20035;-77
2022/12/02 10:18:30;;;;;;;23.48;12.07;;;;;;;2.38;100.00;92530.22;5113348;28;20044;-77
2022/12/02 10:20:56;;;;;;;18.52;10.13;;;;;;;2.37;100.00;92523.50;5094666;28;20429;-77
2022/12/02 10:23:26;;;;;;;23.90;11.80;;;;;;;2.25;100.00;92526.94;5095036;28;20039;-77
2022/12/02 10:26:11;;;;;;;13.70;7.05;;;;;;;2.51;100.00;92529.91;5094117;28;20040;-77
2022/12/02 10:28:38;;;;;;;17.35;9.50;;;;;;;2.47;100.00;92518.47;5077874;28;20397;-77
2022/12/02 10:31:21;;;;;;;22.70;11.60;;;;;;;2.36;100.00;92525.28;5084885;28;20515;-77
2022/12/02 10:33:57;;;;;;;27.02;12.38;;;;;;;2.29;100.00;92520.25;5095017;28;20126;-77
2022/12/02 10:36:41;;;;;;;19.75;9.88;;;;;;;2.53;100.00;92521.94;5080034;28;20032;-77
2022/12/02 10:39:32;;;;;;;24.15;12.43;;;;;;;2.32;100.00;92515.66;5073650;28;20046;-77
2022/12/02 10:42:03;;;;;;;26.00;11.80;;;;;;;2.55;100.00;92517.31;5084540;28;20051;-76
2022/12/02 10:44:41;;;;;;;21.25;12.35;;;;;;;2.40;100.00;92517.84;5091660;28;20040;-77
2022/12/02 10:47:25;;;;;;;22.65;11.98;;;;;;;2.29;100.00;92517.69;5091161;28;20036;-77
2022/12/02 10:49:59;;;;;;;24.23;11.90;;;;;;;2.29;100.00;92514.31;5091445;28;20031;-77
2022/12/02 10:52:31;;;;;;;23.70;12.57;;;;;;;2.38;100.00;92518.06;5073540;28;20048;-77
2022/12/02 10:54:57;;;;;;;27.23;14.27;;;;;;;2.27;100.00;92509.41;5072391;28;20403;-77
2022/12/02 10:57:24;;;;;;;28.70;13.25;;;;;;;2.28;100.00;92510.97;5090172;28;20458;-77
2022/12/02 10:59:52;;;;;;;32.38;15.52;;;;;;;2.22;100.00;92509.31;5094240;28;20020;-77
2022/12/02 11:02:31;;;;;;;30.70;14.95;;;;;;;2.29;100.00;92511.72;5090713;28;20040;-78
2022/12/02 11:05:00;;;;;;;38.83;17.02;;;;;;;2.36;100.00;92509.00;5095064;28;20141;-78
2022/12/02 11:07:26;;;;;;;36.38;16.95;;;;;;;2.31;100.00;92493.44;5095075;28;20080;-77
2022/12/02 11:09:54;;;;;;;39.05;17.58;;;;;;;2.45;100.00;92503.19;5093058;28;20116;-77
2022/12/02 11:12:33;;;;;;;31.10;15.70;;;;;;;2.59;100.00;92502.88;5095460;28;20063;-78
2022/12/02 11:15:00;;;;;;;32.70;16.55;;;;;;;2.58;100.00;92498.75;5079353;28;20482;-77
2022/12/02 11:17:50;;;;;;;33.03;17.48;;;;;;;2.71;100.00;92496.59;5107672;28;20124;-77
2022/12/02 11:20:35;;;;;;;32.78;16.60;;;;;;;2.78;100.00;92498.25;5091064;28;20498;-77
2022/12/02 11:23:40;;;;;;;31.63;15.82;;;;;;;2.84;100.00;92494.72;5094653;28;20094;-77
2022/12/02 11:26:06;;;;;;;34.47;16.35;;;;;;;2.88;100.00;92493.19;5085279;28;20347;-77
2022/12/02 11:28:58;;;;;;;33.80;16.63;;;;;;;2.78;100.00;92496.44;5073256;28;20060;-77